sensor_id;sensor_type;location;lat;lon;timestamp;temperature;humidity
26224;DHT22;14820;48.682;8.890;2023-06-14T00:01:41;12.60;96.10
26224;DHT22;14820;48.682;8.890;2023-06-14T00:04:11;12.50;96.00
26224;DHT22;14820;48.682;8.890;2023-06-14T00:06:38;12.40;96.10
26224;DHT22;14820;48.682;8.890;2023-06-14T00:09:04;12.40;96.20
26224;DHT22;14820;48.682;8.890;2023-06-14T00:11:31;12.40;96.30
26224;DHT22;14820;48.682;8.890;2023-06-14T00:13:56;12.30;96.60
26224;DHT22;14820;48.682;8.890;2023-06-14T00:16:22;12.30;96.90
26224;DHT22;14820;48.682;8.890;2023-06-14T00:18:48;12.20;97.00
26224;DHT22;14820;48.682;8.890;2023-06-14T00:21:14;12.30;96.90
26224;DHT22;14820;48.682;8.890;2023-06-14T00:23:40;12.30;96.90
26224;DHT22;14820;48.682;8.890;2023-06-14T00:26:06;12.30;97.00
26224;DHT22;14820;48.682;8.890;2023-06-14T00:28:31;12.30;97.00
26224;DHT22;14820;48.682;8.890;2023-06-14T00:30:57;12.30;97.10
26224;DHT22;14820;48.682;8.890;2023-06-14T00:33:22;12.40;97.10
26224;DHT22;14820;48.682;8.890;2023-06-14T00:35:48;12.30;97.30
26224;DHT22;14820;48.682;8.890;2023-06-14T00:38:14;12.30;97.30
26224;DHT22;14820;48.682;8.890;2023-06-14T00:40:40;12.30;97.70
26224;DHT22;14820;48.682;8.890;2023-06-14T00:43:05;12.30;97.40
26224;DHT22;14820;48.682;8.890;2023-06-14T00:45:31;12.20;98.00
26224;DHT22;14820;48.682;8.890;2023-06-14T00:48:02;12.10;98.20
26224;DHT22;14820;48.682;8.890;2023-06-14T00:50:28;12.00;98.30
26224;DHT22;14820;48.682;8.890;2023-06-14T00:52:55;11.90;98.50
26224;DHT22;14820;48.682;8.890;2023-06-14T00:55:21;11.90;98.70
26224;DHT22;14820;48.682;8.890;2023-06-14T00:57:48;12.10;99.00
26224;DHT22;14820;48.682;8.890;2023-06-14T01:00:14;12.00;98.90
26224;DHT22;14820;48.682;8.890;2023-06-14T01:02:40;11.90;99.00
26224;DHT22;14820;48.682;8.890;2023-06-14T01:05:07;11.70;99.30
26224;DHT22;14820;48.682;8.890;2023-06-14T01:15:31;11.60;99.90
26224;DHT22;14820;48.682;8.890;2023-06-14T01:17:57;11.60;99.90
26224;DHT22;14820;48.682;8.890;2023-06-14T01:20:30;11.50;99.90
26224;DHT22;14820;48.682;8.890;2023-06-14T01:22:56;11.40;99.90
26224;DHT22;14820;48.682;8.890;2023-06-14T01:25:23;11.40;99.90
26224;DHT22;14820;48.682;8.890;2023-06-14T01:27:49;11.30;99.90
26224;DHT22;14820;48.682;8.890;2023-06-14T01:30:17;11.30;99.90
26224;DHT22;14820;48.682;8.890;2023-06-14T01:32:44;11.30;99.90
26224;DHT22;14820;48.682;8.890;2023-06-14T01:35:10;11.20;99.90
26224;DHT22;14820;48.682;8.890;2023-06-14T01:37:36;11.20;99.90
26224;DHT22;14820;48.682;8.890;2023-06-14T01:40:04;11.20;99.90
26224;DHT22;14820;48.682;8.890;2023-06-14T01:42:35;11.10;99.90
26224;DHT22;14820;48.682;8.890;2023-06-14T01:45:02;11.00;99.90
26224;DHT22;14820;48.682;8.890;2023-06-14T01:47:29;11.00;99.90
26224;DHT22;14820;48.682;8.890;2023-06-14T01:49:55;10.90;99.90
26224;DHT22;14820;48.682;8.890;2023-06-14T01:52:21;10.90;99.90
26224;DHT22;14820;48.682;8.890;2023-06-14T01:54:47;10.80;99.90
26224;DHT22;14820;48.682;8.890;2023-06-14T01:57:15;10.80;99.90
26224;DHT22;14820;48.682;8.890;2023-06-14T01:59:40;10.90;99.90
26224;DHT22;14820;48.682;8.890;2023-06-14T02:02:06;10.80;99.90
26224;DHT22;14820;48.682;8.890;2023-06-14T02:04:32;10.80;99.90
26224;DHT22;14820;48.682;8.890;2023-06-14T02:06:57;10.70;99.90
26224;DHT22;14820;48.682;8.890;2023-06-14T02:09:23;10.70;99.90
26224;DHT22;14820;48.682;8.890;2023-06-14T02:11:49;10.70;99.90
26224;DHT22;14820;48.682;8.890;2023-06-14T02:14:15;10.70;99.90
26224;DHT22;14820;48.682;8.890;2023-06-14T02:16:42;10.70;99.90
26224;DHT22;14820;48.682;8.890;2023-06-14T02:19:17;10.70;99.90
26224;DHT22;14820;48.682;8.890;2023-06-14T02:21:43;10.50;99.90
26224;DHT22;14820;48.682;8.890;2023-06-14T02:24:09;10.50;99.90
26224;DHT22;14820;48.682;8.890;2023-06-14T02:26:35;10.50;99.90
26224;DHT22;14820;48.682;8.890;2023-06-14T02:29:03;10.40;99.90
26224;DHT22;14820;48.682;8.890;2023-06-14T02:31:29;10.50;99.90
26224;DHT22;14820;48.682;8.890;2023-06-14T02:33:55;10.50;99.90
26224;DHT22;14820;48.682;8.890;2023-06-14T02:36:20;10.40;99.90
26224;DHT22;14820;48.682;8.890;2023-06-14T02:38:46;10.40;99.90
26224;DHT22;14820;48.682;8.890;2023-06-14T02:41:12;10.40;99.90
26224;DHT22;14820;48.682;8.890;2023-06-14T02:43:37;10.30;99.90
26224;DHT22;14820;48.682;8.890;2023-06-14T02:46:03;10.30;99.90
26224;DHT22;14820;48.682;8.890;2023-06-14T02:48:29;10.30;99.90
26224;DHT22;14820;48.682;8.890;2023-06-14T02:50:55;10.30;99.90
26224;DHT22;14820;48.682;8.890;2023-06-14T02:53:22;10.30;99.90
26224;DHT22;14820;48.682;8.890;2023-06-14T02:55:47;10.20;99.90
26224;DHT22;14820;48.682;8.890;2023-06-14T02:58:14;10.20;99.90
26224;DHT22;14820;48.682;8.890;2023-06-14T03:00:39;10.20;99.90
26224;DHT22;14820;48.682;8.890;2023-06-14T03:03:06;10.20;99.90
26224;DHT22;14820;48.682;8.890;2023-06-14T03:05:42;10.10;99.90
26224;DHT22;14820;48.682;8.890;2023-06-14T03:08:12;10.10;99.90
26224;DHT22;14820;48.682;8.890;2023-06-14T03:10:43;10.10;99.90
26224;DHT22;14820;48.682;8.890;2023-06-14T03:13:09;10.10;99.90
26224;DHT22;14820;48.682;8.890;2023-06-14T03:15:36;10.10;99.90
26224;DHT22;14820;48.682;8.890;2023-06-14T03:18:02;10.10;99.90
26224;DHT22;14820;48.682;8.890;2023-06-14T03:20:29;10.00;99.90
26224;DHT22;14820;48.682;8.890;2023-06-14T03:22:59;9.90;99.90
26224;DHT22;14820;48.682;8.890;2023-06-14T03:25:25;10.00;99.90
26224;DHT22;14820;48.682;8.890;2023-06-14T03:27:51;10.00;99.90
26224;DHT22;14820;48.682;8.890;2023-06-14T03:30:17;9.90;99.90
26224;DHT22;14820;48.682;8.890;2023-06-14T03:32:43;9.90;99.90
26224;DHT22;14820;48.682;8.890;2023-06-14T03:35:08;9.90;99.90
26224;DHT22;14820;48.682;8.890;2023-06-14T03:37:35;9.90;99.90
26224;DHT22;14820;48.682;8.890;2023-06-14T03:40:01;9.90;99.90
26224;DHT22;14820;48.682;8.890;2023-06-14T03:42:27;9.90;99.90
26224;DHT22;14820;48.682;8.890;2023-06-14T03:44:53;9.90;99.90
26224;DHT22;14820;48.682;8.890;2023-06-14T03:47:18;9.90;99.90
26224;DHT22;14820;48.682;8.890;2023-06-14T03:49:44;9.90;99.90
26224;DHT22;14820;48.682;8.890;2023-06-14T03:52:10;9.90;99.90
26224;DHT22;14820;48.682;8.890;2023-06-14T03:54:35;9.90;99.90
26224;DHT22;14820;48.682;8.890;2023-06-14T03:57:01;9.80;99.90
26224;DHT22;14820;48.682;8.890;2023-06-14T03:59:27;9.90;99.90
26224;DHT22;14820;48.682;8.890;2023-06-14T04:01:54;9.90;99.90
26224;DHT22;14820;48.682;8.890;2023-06-14T04:04:20;9.80;99.90
26224;DHT22;14820;48.682;8.890;2023-06-14T04:06:46;9.80;99.90
26224;DHT22;14820;48.682;8.890;2023-06-14T04:09:13;9.90;99.90
26224;DHT22;14820;48.682;8.890;2023-06-14T04:11:39;9.80;99.90
26224;DHT22;14820;48.682;8.890;2023-06-14T04:14:05;9.80;99.90
26224;DHT22;14820;48.682;8.890;2023-06-14T04:16:31;9.90;99.90
26224;DHT22;14820;48.682;8.890;2023-06-14T04:18:57;9.90;99.90
26224;DHT22;14820;48.682;8.890;2023-06-14T04:21:23;9.90;99.90
26224;DHT22;14820;48.682;8.890;2023-06-14T04:23:49;10.00;99.90
26224;DHT22;14820;48.682;8.890;2023-06-14T04:26:18;10.00;99.90
26224;DHT22;14820;48.682;8.890;2023-06-14T04:28:45;10.00;99.90
26224;DHT22;14820;48.682;8.890;2023-06-14T04:31:12;10.00;99.90
26224;DHT22;14820;48.682;8.890;2023-06-14T04:33:39;10.10;99.90
26224;DHT22;14820;48.682;8.890;2023-06-14T04:36:12;10.10;99.90
26224;DHT22;14820;48.682;8.890;2023-06-14T04:38:39;10.10;99.90
26224;DHT22;14820;48.682;8.890;2023-06-14T04:41:04;10.20;99.90
26224;DHT22;14820;48.682;8.890;2023-06-14T04:43:31;10.20;99.90
26224;DHT22;14820;48.682;8.890;2023-06-14T04:46:02;10.30;99.90
26224;DHT22;14820;48.682;8.890;2023-06-14T04:48:28;10.30;99.90
26224;DHT22;14820;48.682;8.890;2023-06-14T04:50:54;10.40;99.90
26224;DHT22;14820;48.682;8.890;2023-06-14T04:53:20;10.50;99.90
26224;DHT22;14820;48.682;8.890;2023-06-14T04:55:48;10.50;99.90
26224;DHT22;14820;48.682;8.890;2023-06-14T04:58:14;10.60;99.90
26224;DHT22;14820;48.682;8.890;2023-06-14T05:00:40;10.70;99.90
26224;DHT22;14820;48.682;8.890;2023-06-14T05:03:07;10.70;99.90
26224;DHT22;14820;48.682;8.890;2023-06-14T05:05:34;10.70;99.90
26224;DHT22;14820;48.682;8.890;2023-06-14T05:07:59;10.80;99.90
26224;DHT22;14820;48.682;8.890;2023-06-14T05:10:25;10.80;99.90
26224;DHT22;14820;48.682;8.890;2023-06-14T05:12:51;11.00;99.90
26224;DHT22;14820;48.682;8.890;2023-06-14T05:15:18;11.00;99.90
26224;DHT22;14820;48.682;8.890;2023-06-14T05:17:45;11.10;99.90
26224;DHT22;14820;48.682;8.890;2023-06-14T05:20:15;11.20;99.90
26224;DHT22;14820;48.682;8.890;2023-06-14T05:22:41;11.30;99.90
26224;DHT22;14820;48.682;8.890;2023-06-14T05:25:07;11.40;99.90
26224;DHT22;14820;48.682;8.890;2023-06-14T05:27:33;11.50;99.90
26224;DHT22;14820;48.682;8.890;2023-06-14T05:30:01;11.60;99.90
26224;DHT22;14820;48.682;8.890;2023-06-14T05:32:26;11.80;99.90
26224;DHT22;14820;48.682;8.890;2023-06-14T05:34:52;12.00;99.90
26224;DHT22;14820;48.682;8.890;2023-06-14T05:37:17;12.10;99.90
26224;DHT22;14820;48.682;8.890;2023-06-14T05:39:43;12.20;99.90
26224;DHT22;14820;48.682;8.890;2023-06-14T05:42:09;12.30;99.90
26224;DHT22;14820;48.682;8.890;2023-06-14T05:44:34;12.40;99.90
26224;DHT22;14820;48.682;8.890;2023-06-14T05:47:00;12.50;99.90
26224;DHT22;14820;48.682;8.890;2023-06-14T05:49:26;12.60;99.90
26224;DHT22;14820;48.682;8.890;2023-06-14T05:51:51;12.70;99.90
26224;DHT22;14820;48.682;8.890;2023-06-14T05:54:17;12.80;99.90
26224;DHT22;14820;48.682;8.890;2023-06-14T05:56:42;12.90;99.90
26224;DHT22;14820;48.682;8.890;2023-06-14T05:59:08;13.10;99.90
26224;DHT22;14820;48.682;8.890;2023-06-14T06:01:34;13.10;99.90
26224;DHT22;14820;48.682;8.890;2023-06-14T06:04:02;13.20;99.90
26224;DHT22;14820;48.682;8.890;2023-06-14T06:06:28;13.30;99.90
26224;DHT22;14820;48.682;8.890;2023-06-14T06:08:54;13.50;99.90
26224;DHT22;14820;48.682;8.890;2023-06-14T06:11:19;13.60;99.90
26224;DHT22;14820;48.682;8.890;2023-06-14T06:13:45;13.70;99.90
26224;DHT22;14820;48.682;8.890;2023-06-14T06:16:11;13.90;99.90
26224;DHT22;14820;48.682;8.890;2023-06-14T06:18:37;14.10;99.90
26224;DHT22;14820;48.682;8.890;2023-06-14T06:21:04;14.20;99.90
26224;DHT22;14820;48.682;8.890;2023-06-14T06:23:31;14.40;99.90
26224;DHT22;14820;48.682;8.890;2023-06-14T06:25:57;14.60;99.90
26224;DHT22;14820;48.682;8.890;2023-06-14T06:28:23;14.70;99.90
26224;DHT22;14820;48.682;8.890;2023-06-14T06:30:49;14.80;99.90
26224;DHT22;14820;48.682;8.890;2023-06-14T06:33:16;15.00;99.90
26224;DHT22;14820;48.682;8.890;2023-06-14T06:35:41;15.10;99.90
26224;DHT22;14820;48.682;8.890;2023-06-14T06:38:08;15.10;99.90
26224;DHT22;14820;48.682;8.890;2023-06-14T06:40:35;15.30;99.90
26224;DHT22;14820;48.682;8.890;2023-06-14T06:43:02;15.40;99.90
26224;DHT22;14820;48.682;8.890;2023-06-14T06:45:28;15.40;99.90
26224;DHT22;14820;48.682;8.890;2023-06-14T06:47:54;15.60;99.90
26224;DHT22;14820;48.682;8.890;2023-06-14T06:50:21;15.70;99.90
26224;DHT22;14820;48.682;8.890;2023-06-14T06:52:48;15.80;99.90
26224;DHT22;14820;48.682;8.890;2023-06-14T06:55:14;15.90;99.90
26224;DHT22;14820;48.682;8.890;2023-06-14T06:57:40;16.00;99.90
26224;DHT22;14820;48.682;8.890;2023-06-14T07:00:06;16.10;99.90
26224;DHT22;14820;48.682;8.890;2023-06-14T07:02:36;16.20;99.90
26224;DHT22;14820;48.682;8.890;2023-06-14T07:05:02;16.30;99.90
26224;DHT22;14820;48.682;8.890;2023-06-14T07:07:27;16.40;99.90
26224;DHT22;14820;48.682;8.890;2023-06-14T07:09:53;16.50;99.90
26224;DHT22;14820;48.682;8.890;2023-06-14T07:12:19;16.60;99.90
26224;DHT22;14820;48.682;8.890;2023-06-14T07:14:45;16.70;99.90
26224;DHT22;14820;48.682;8.890;2023-06-14T07:17:11;16.80;99.90
26224;DHT22;14820;48.682;8.890;2023-06-14T07:19:37;16.90;99.90
26224;DHT22;14820;48.682;8.890;2023-06-14T07:22:02;16.90;99.90
26224;DHT22;14820;48.682;8.890;2023-06-14T07:24:28;17.10;99.90
26224;DHT22;14820;48.682;8.890;2023-06-14T07:26:54;17.20;99.90
26224;DHT22;14820;48.682;8.890;2023-06-14T07:29:20;17.30;99.90
26224;DHT22;14820;48.682;8.890;2023-06-14T07:31:46;17.40;99.90
26224;DHT22;14820;48.682;8.890;2023-06-14T07:34:12;17.60;99.90
26224;DHT22;14820;48.682;8.890;2023-06-14T07:36:38;17.70;99.90
26224;DHT22;14820;48.682;8.890;2023-06-14T07:39:04;17.80;99.90
26224;DHT22;14820;48.682;8.890;2023-06-14T07:41:32;17.90;99.90
26224;DHT22;14820;48.682;8.890;2023-06-14T07:43:58;18.00;99.90
26224;DHT22;14820;48.682;8.890;2023-06-14T07:46:23;18.00;99.90
26224;DHT22;14820;48.682;8.890;2023-06-14T07:48:49;18.10;99.90
26224;DHT22;14820;48.682;8.890;2023-06-14T07:51:15;18.30;99.90
26224;DHT22;14820;48.682;8.890;2023-06-14T07:53:40;18.40;99.90
26224;DHT22;14820;48.682;8.890;2023-06-14T07:56:07;18.50;99.90
26224;DHT22;14820;48.682;8.890;2023-06-14T07:58:33;18.60;99.90
26224;DHT22;14820;48.682;8.890;2023-06-14T08:00:58;18.80;99.90
26224;DHT22;14820;48.682;8.890;2023-06-14T08:03:25;18.80;99.00
26224;DHT22;14820;48.682;8.890;2023-06-14T08:05:51;18.90;98.50
26224;DHT22;14820;48.682;8.890;2023-06-14T08:08:17;18.90;98.50
26224;DHT22;14820;48.682;8.890;2023-06-14T08:10:43;19.00;98.40
26224;DHT22;14820;48.682;8.890;2023-06-14T08:13:09;19.00;98.10
26224;DHT22;14820;48.682;8.890;2023-06-14T08:15:35;19.00;98.40
26224;DHT22;14820;48.682;8.890;2023-06-14T08:18:01;19.10;98.20
26224;DHT22;14820;48.682;8.890;2023-06-14T08:20:27;19.20;98.20
26224;DHT22;14820;48.682;8.890;2023-06-14T08:22:53;19.30;98.10
26224;DHT22;14820;48.682;8.890;2023-06-14T08:25:22;19.40;97.90
26224;DHT22;14820;48.682;8.890;2023-06-14T08:27:48;19.50;97.40
26224;DHT22;14820;48.682;8.890;2023-06-14T08:30:14;19.50;97.30
26224;DHT22;14820;48.682;8.890;2023-06-14T08:32:39;19.60;97.10
26224;DHT22;14820;48.682;8.890;2023-06-14T08:35:05;19.60;95.40
26224;DHT22;14820;48.682;8.890;2023-06-14T08:37:32;19.60;95.20
26224;DHT22;14820;48.682;8.890;2023-06-14T08:40:01;19.60;95.80
26224;DHT22;14820;48.682;8.890;2023-06-14T08:42:30;19.70;96.30
26224;DHT22;14820;48.682;8.890;2023-06-14T08:44:57;19.80;96.00
26224;DHT22;14820;48.682;8.890;2023-06-14T08:47:23;19.80;96.40
26224;DHT22;14820;48.682;8.890;2023-06-14T08:49:53;19.90;96.50
26224;DHT22;14820;48.682;8.890;2023-06-14T08:52:22;20.00;95.40
26224;DHT22;14820;48.682;8.890;2023-06-14T08:54:48;20.00;94.90
26224;DHT22;14820;48.682;8.890;2023-06-14T08:57:15;20.00;95.60
26224;DHT22;14820;48.682;8.890;2023-06-14T08:59:47;20.10;95.80
26224;DHT22;14820;48.682;8.890;2023-06-14T09:02:15;20.20;95.50
26224;DHT22;14820;48.682;8.890;2023-06-14T09:04:45;20.20;95.20
26224;DHT22;14820;48.682;8.890;2023-06-14T09:07:11;20.30;95.10
26224;DHT22;14820;48.682;8.890;2023-06-14T09:09:41;20.40;95.00
26224;DHT22;14820;48.682;8.890;2023-06-14T09:12:10;20.50;93.80
26224;DHT22;14820;48.682;8.890;2023-06-14T09:14:36;20.50;94.20
26224;DHT22;14820;48.682;8.890;2023-06-14T09:17:05;20.50;94.20
26224;DHT22;14820;48.682;8.890;2023-06-14T09:19:31;20.50;94.50
26224;DHT22;14820;48.682;8.890;2023-06-14T09:21:57;20.60;94.60
26224;DHT22;14820;48.682;8.890;2023-06-14T09:24:24;20.60;93.90
26224;DHT22;14820;48.682;8.890;2023-06-14T09:26:51;20.60;93.70
26224;DHT22;14820;48.682;8.890;2023-06-14T09:29:17;20.70;92.90
26224;DHT22;14820;48.682;8.890;2023-06-14T09:31:46;20.70;93.60
26224;DHT22;14820;48.682;8.890;2023-06-14T09:34:12;20.80;93.40
26224;DHT22;14820;48.682;8.890;2023-06-14T09:36:39;20.80;94.10
26224;DHT22;14820;48.682;8.890;2023-06-14T09:39:06;21.00;93.30
26224;DHT22;14820;48.682;8.890;2023-06-14T09:41:35;21.00;92.30
26224;DHT22;14820;48.682;8.890;2023-06-14T09:44:05;21.20;92.20
26224;DHT22;14820;48.682;8.890;2023-06-14T09:46:32;21.20;92.40
26224;DHT22;14820;48.682;8.890;2023-06-14T09:48:59;21.20;92.30
26224;DHT22;14820;48.682;8.890;2023-06-14T09:51:25;21.30;92.40
26224;DHT22;14820;48.682;8.890;2023-06-14T09:53:52;21.40;91.00
26224;DHT22;14820;48.682;8.890;2023-06-14T09:56:31;21.40;91.90
26224;DHT22;14820;48.682;8.890;2023-06-14T09:58:58;21.50;92.10
26224;DHT22;14820;48.682;8.890;2023-06-14T10:01:25;21.60;90.70
26224;DHT22;14820;48.682;8.890;2023-06-14T10:03:55;21.70;90.00
26224;DHT22;14820;48.682;8.890;2023-06-14T10:06:26;21.70;88.80
26224;DHT22;14820;48.682;8.890;2023-06-14T10:08:57;21.70;89.00
26224;DHT22;14820;48.682;8.890;2023-06-14T10:11:23;21.80;89.10
26224;DHT22;14820;48.682;8.890;2023-06-14T10:13:50;21.70;88.40
26224;DHT22;14820;48.682;8.890;2023-06-14T10:22:02;22.00;82.90
26224;DHT22;14820;48.682;8.890;2023-06-14T10:24:38;22.10;83.10
26224;DHT22;14820;48.682;8.890;2023-06-14T10:27:07;22.20;82.20
26224;DHT22;14820;48.682;8.890;2023-06-14T10:32:27;22.30;80.00
26224;DHT22;14820;48.682;8.890;2023-06-14T10:34:59;22.40;82.90
26224;DHT22;14820;48.682;8.890;2023-06-14T10:37:25;22.30;80.90
26224;DHT22;14820;48.682;8.890;2023-06-14T10:39:51;22.40;81.90
26224;DHT22;14820;48.682;8.890;2023-06-14T10:42:17;22.50;79.50
26224;DHT22;14820;48.682;8.890;2023-06-14T10:44:45;22.50;78.70
26224;DHT22;14820;48.682;8.890;2023-06-14T10:47:27;22.50;73.90
26224;DHT22;14820;48.682;8.890;2023-06-14T10:52:28;22.30;73.60
26224;DHT22;14820;48.682;8.890;2023-06-14T10:55:16;22.30;71.50
26224;DHT22;14820;48.682;8.890;2023-06-14T10:57:52;22.20;71.60
26224;DHT22;14820;48.682;8.890;2023-06-14T11:00:23;22.20;73.60
26224;DHT22;14820;48.682;8.890;2023-06-14T11:05:54;22.30;76.60
26224;DHT22;14820;48.682;8.890;2023-06-14T11:08:38;22.30;77.10
26224;DHT22;14820;48.682;8.890;2023-06-14T11:11:09;22.30;76.30
26224;DHT22;14820;48.682;8.890;2023-06-14T11:13:44;22.30;76.90
26224;DHT22;14820;48.682;8.890;2023-06-14T11:16:12;22.40;76.60
26224;DHT22;14820;48.682;8.890;2023-06-14T11:18:38;22.50;76.30
26224;DHT22;14820;48.682;8.890;2023-06-14T11:21:04;22.50;74.90
26224;DHT22;14820;48.682;8.890;2023-06-14T11:23:29;22.60;75.20
26224;DHT22;14820;48.682;8.890;2023-06-14T11:25:55;22.70;75.50
26224;DHT22;14820;48.682;8.890;2023-06-14T11:28:21;22.80;74.90
26224;DHT22;14820;48.682;8.890;2023-06-14T11:30:48;22.80;74.60
26224;DHT22;14820;48.682;8.890;2023-06-14T11:33:17;22.80;73.30
26224;DHT22;14820;48.682;8.890;2023-06-14T11:35:46;22.90;74.60
26224;DHT22;14820;48.682;8.890;2023-06-14T11:38:12;22.80;75.50
26224;DHT22;14820;48.682;8.890;2023-06-14T11:40:38;22.70;74.80
26224;DHT22;14820;48.682;8.890;2023-06-14T11:43:04;22.60;75.10
26224;DHT22;14820;48.682;8.890;2023-06-14T11:45:30;22.60;74.40
26224;DHT22;14820;48.682;8.890;2023-06-14T11:47:57;22.60;74.30
26224;DHT22;14820;48.682;8.890;2023-06-14T11:50:24;22.60;75.20
26224;DHT22;14820;48.682;8.890;2023-06-14T11:52:54;22.70;75.50
26224;DHT22;14820;48.682;8.890;2023-06-14T11:55:21;22.70;74.60
26224;DHT22;14820;48.682;8.890;2023-06-14T11:57:47;22.80;74.70
26224;DHT22;14820;48.682;8.890;2023-06-14T12:00:13;22.90;73.80
26224;DHT22;14820;48.682;8.890;2023-06-14T12:02:41;22.80;74.10
26224;DHT22;14820;48.682;8.890;2023-06-14T12:05:08;22.70;73.30
26224;DHT22;14820;48.682;8.890;2023-06-14T12:07:38;22.70;74.60
26224;DHT22;14820;48.682;8.890;2023-06-14T12:10:08;22.70;75.10
26224;DHT22;14820;48.682;8.890;2023-06-14T12:12:39;22.90;74.10
26224;DHT22;14820;48.682;8.890;2023-06-14T12:15:06;22.90;73.60
26224;DHT22;14820;48.682;8.890;2023-06-14T12:17:35;23.00;74.10
26224;DHT22;14820;48.682;8.890;2023-06-14T12:20:14;23.10;74.60
26224;DHT22;14820;48.682;8.890;2023-06-14T12:23:07;23.20;73.50
26224;DHT22;14820;48.682;8.890;2023-06-14T12:25:35;23.30;71.70
26224;DHT22;14820;48.682;8.890;2023-06-14T12:28:07;23.30;71.00
26224;DHT22;14820;48.682;8.890;2023-06-14T12:30:33;23.30;71.70
26224;DHT22;14820;48.682;8.890;2023-06-14T12:32:59;23.40;71.10
26224;DHT22;14820;48.682;8.890;2023-06-14T12:35:25;23.40;69.80
26224;DHT22;14820;48.682;8.890;2023-06-14T12:37:51;23.30;71.50
26224;DHT22;14820;48.682;8.890;2023-06-14T12:40:17;23.30;71.00
26224;DHT22;14820;48.682;8.890;2023-06-14T12:42:45;23.40;71.30
26224;DHT22;14820;48.682;8.890;2023-06-14T12:45:12;23.40;72.50
26224;DHT22;14820;48.682;8.890;2023-06-14T12:47:38;23.40;71.40
26224;DHT22;14820;48.682;8.890;2023-06-14T12:50:05;23.50;71.50
26224;DHT22;14820;48.682;8.890;2023-06-14T12:52:30;23.50;71.10
26224;DHT22;14820;48.682;8.890;2023-06-14T12:54:56;23.60;72.20
26224;DHT22;14820;48.682;8.890;2023-06-14T12:57:23;23.40;69.90
26224;DHT22;14820;48.682;8.890;2023-06-14T12:59:48;23.40;69.50
26224;DHT22;14820;48.682;8.890;2023-06-14T13:02:16;23.40;69.60
26224;DHT22;14820;48.682;8.890;2023-06-14T13:04:43;23.50;71.90
26224;DHT22;14820;48.682;8.890;2023-06-14T13:07:09;23.60;70.90
26224;DHT22;14820;48.682;8.890;2023-06-14T13:09:36;23.60;70.90
26224;DHT22;14820;48.682;8.890;2023-06-14T13:12:02;23.60;71.00
26224;DHT22;14820;48.682;8.890;2023-06-14T13:14:28;23.70;71.10
26224;DHT22;14820;48.682;8.890;2023-06-14T13:16:53;23.80;70.30
26224;DHT22;14820;48.682;8.890;2023-06-14T13:19:19;23.90;71.20
26224;DHT22;14820;48.682;8.890;2023-06-14T13:21:45;23.90;70.00
26224;DHT22;14820;48.682;8.890;2023-06-14T13:24:10;23.90;69.20
26224;DHT22;14820;48.682;8.890;2023-06-14T13:26:36;23.90;67.00
26224;DHT22;14820;48.682;8.890;2023-06-14T13:29:02;23.80;66.90
26224;DHT22;14820;48.682;8.890;2023-06-14T13:31:28;23.60;68.50
26224;DHT22;14820;48.682;8.890;2023-06-14T13:33:54;23.50;69.10
26224;DHT22;14820;48.682;8.890;2023-06-14T13:36:20;23.50;70.20
26224;DHT22;14820;48.682;8.890;2023-06-14T13:38:46;23.50;70.40
26224;DHT22;14820;48.682;8.890;2023-06-14T13:41:11;23.40;72.20
26224;DHT22;14820;48.682;8.890;2023-06-14T13:43:37;23.40;71.30
26224;DHT22;14820;48.682;8.890;2023-06-14T13:46:03;23.40;71.30
26224;DHT22;14820;48.682;8.890;2023-06-14T13:48:29;23.30;70.50
26224;DHT22;14820;48.682;8.890;2023-06-14T13:50:54;23.40;70.20
26224;DHT22;14820;48.682;8.890;2023-06-14T13:53:20;23.40;68.90
26224;DHT22;14820;48.682;8.890;2023-06-14T13:55:46;23.30;69.50
26224;DHT22;14820;48.682;8.890;2023-06-14T13:58:11;23.40;69.10
26224;DHT22;14820;48.682;8.890;2023-06-14T14:00:37;23.40;68.60
26224;DHT22;14820;48.682;8.890;2023-06-14T14:03:06;23.40;68.70
26224;DHT22;14820;48.682;8.890;2023-06-14T14:05:32;23.40;68.90
26224;DHT22;14820;48.682;8.890;2023-06-14T14:07:58;23.40;70.30
26224;DHT22;14820;48.682;8.890;2023-06-14T14:10:27;23.40;69.30
26224;DHT22;14820;48.682;8.890;2023-06-14T14:12:53;23.40;68.90
26224;DHT22;14820;48.682;8.890;2023-06-14T14:15:20;23.40;68.90
26224;DHT22;14820;48.682;8.890;2023-06-14T14:17:46;23.40;68.50
26224;DHT22;14820;48.682;8.890;2023-06-14T14:20:12;23.30;67.30
26224;DHT22;14820;48.682;8.890;2023-06-14T14:22:41;23.30;67.70
26224;DHT22;14820;48.682;8.890;2023-06-14T14:25:07;23.20;67.80
26224;DHT22;14820;48.682;8.890;2023-06-14T14:27:33;23.20;67.70
26224;DHT22;14820;48.682;8.890;2023-06-14T14:29:58;23.20;67.20
26224;DHT22;14820;48.682;8.890;2023-06-14T14:32:24;23.30;67.30
26224;DHT22;14820;48.682;8.890;2023-06-14T14:34:50;23.20;66.90
26224;DHT22;14820;48.682;8.890;2023-06-14T14:37:16;23.30;66.90
26224;DHT22;14820;48.682;8.890;2023-06-14T14:39:43;23.40;67.40
26224;DHT22;14820;48.682;8.890;2023-06-14T14:42:09;23.40;67.40
26224;DHT22;14820;48.682;8.890;2023-06-14T14:44:37;23.40;66.60
26224;DHT22;14820;48.682;8.890;2023-06-14T14:47:03;23.40;66.40
26224;DHT22;14820;48.682;8.890;2023-06-14T14:49:28;23.40;66.40
26224;DHT22;14820;48.682;8.890;2023-06-14T14:51:55;23.40;66.00
26224;DHT22;14820;48.682;8.890;2023-06-14T14:54:21;23.40;66.40
26224;DHT22;14820;48.682;8.890;2023-06-14T14:56:47;23.40;66.10
26224;DHT22;14820;48.682;8.890;2023-06-14T14:59:13;23.40;65.90
26224;DHT22;14820;48.682;8.890;2023-06-14T15:01:39;23.30;65.50
26224;DHT22;14820;48.682;8.890;2023-06-14T15:04:04;23.40;66.60
26224;DHT22;14820;48.682;8.890;2023-06-14T15:06:30;23.40;66.50
26224;DHT22;14820;48.682;8.890;2023-06-14T15:08:56;23.30;66.30
26224;DHT22;14820;48.682;8.890;2023-06-14T15:11:22;23.40;68.50
26224;DHT22;14820;48.682;8.890;2023-06-14T15:13:48;23.40;67.80
26224;DHT22;14820;48.682;8.890;2023-06-14T15:16:14;23.40;67.60
26224;DHT22;14820;48.682;8.890;2023-06-14T15:18:40;23.40;67.60
26224;DHT22;14820;48.682;8.890;2023-06-14T15:21:06;23.40;67.70
26224;DHT22;14820;48.682;8.890;2023-06-14T15:23:31;23.40;68.00
26224;DHT22;14820;48.682;8.890;2023-06-14T15:25:57;23.40;68.20
26224;DHT22;14820;48.682;8.890;2023-06-14T15:28:24;23.40;67.50
26224;DHT22;14820;48.682;8.890;2023-06-14T15:30:53;23.40;67.90
26224;DHT22;14820;48.682;8.890;2023-06-14T15:33:19;23.30;68.30
26224;DHT22;14820;48.682;8.890;2023-06-14T15:35:46;23.40;67.90
26224;DHT22;14820;48.682;8.890;2023-06-14T15:38:12;23.30;68.00
26224;DHT22;14820;48.682;8.890;2023-06-14T15:40:37;23.30;68.00
26224;DHT22;14820;48.682;8.890;2023-06-14T15:43:03;23.20;68.50
26224;DHT22;14820;48.682;8.890;2023-06-14T15:45:29;23.20;68.70
26224;DHT22;14820;48.682;8.890;2023-06-14T15:47:55;23.30;68.70
26224;DHT22;14820;48.682;8.890;2023-06-14T15:50:21;23.30;68.80
26224;DHT22;14820;48.682;8.890;2023-06-14T15:52:47;23.20;69.10